This is the latest recevied weather packets stored in our database for station/object W4CKA. If no packets are shown the sender has not sent any weather packets the latest 10 day(s).
| Time | Temp. | Humidity | Pressure | Rain* | Wind** | Luminosity | Snow |
|---|---|---|---|---|---|---|---|
| 1777904134 | 12.22° C | 78% | 1060.8 hPa | 0 mm | - | 152 W/m² | - |
| 1777903534 | 12.22° C | 79% | 1060.9 hPa | 0 mm | - | 235 W/m² | - |
| 1777902932 | 11.67° C | 82% | 1061 hPa | 0 mm | - | 194 W/m² | - |
| 1777902332 | 11.11° C | 82% | 1060.6 hPa | 0 mm | - | 159 W/m² | - |
| 1777901728 | 10.56° C | 82% | 1060.9 hPa | 0 mm | - | 124 W/m² | - |
| 1777901128 | 11.11° C | 81% | 1060.6 hPa | 0 mm | - | 201 W/m² | - |
| 1777900529 | 11.67° C | 78% | 1060.4 hPa | 0 mm | - | 204 W/m² | - |
| 1777899927 | 9.44° C | 83% | 1060.6 hPa | 0 mm | - | 127 W/m² | - |
| 1777899322 | 10° C | 83% | 1060.3 hPa | 0 mm | - | 197 W/m² | - |
| 1777898722 | 11.11° C | 78% | 1059.9 hPa | 0 mm | - | 137 W/m² | - |
| 1777898117 | 10° C | 79% | 1059.8 hPa | 0 mm | - | 150 W/m² | - |
| 1777897515 | 9.44° C | 80% | 1059.8 hPa | 0 mm | - | 106 W/m² | - |
| 1777896913 | 8.33° C | 88% | 1059.9 hPa | 0 mm | - | 94 W/m² | - |
| 1777896314 | 5.56° C | 96% | 1059.7 hPa | 0 mm | - | 84 W/m² | - |
| 1777895710 | 5.56° C | 98% | 1059.9 hPa | 0 mm | - | 62 W/m² | - |
| 1777895104 | 4.44° C | 98% | 1059.7 hPa | 0 mm | - | 46 W/m² | - |
| 1777894503 | 3.89° C | 98% | 1059.8 hPa | 0 mm | - | 20 W/m² | - |
| 1777893904 | 3.89° C | 98% | 1059.4 hPa | 0 mm | - | 26 W/m² | - |
| 1777893302 | 3.33° C | 98% | 1059.2 hPa | 0 mm | - | 28 W/m² | - |
| 1777892702 | 2.78° C | 98% | 1059.1 hPa | 0 mm | - | 16 W/m² | - |
| 1777892099 | 3.33° C | 98% | 1058.9 hPa | 0 mm | - | 7 W/m² | - |
| 1777891500 | 2.78° C | 98% | 1058.7 hPa | 0 mm | - | 1 W/m² | - |
| 1777890895 | 2.78° C | 98% | 1058.7 hPa | 0 mm | - | 0 W/m² | - |
| 1777890293 | 2.78° C | 98% | 1058.8 hPa | 0 mm | - | 0 W/m² | - |
| 1777889687 | 2.78° C | 98% | 1059.2 hPa | 0 mm | - | 0 W/m² | - |
* Rain latest hour (hover to see other rain measurements)
** Current wind speed in m/s (hover to see current wind gust speed)